Terminal Aerodrome Forecast
Issued by NWS

Home | Current Version | Previous Version | Text Only | Print | Product List | Glossary On
Versions: 1 2 3 4 5 6 7 8 9 10 11 12 13 14 15 16 17 18 19
000
FTUS41 KCLE 110805 AAA
TAFFDY
TAF AMD
KFDY 110805Z 1108/1206 32006KT P6SM SCT025 BKN040
      TEMPO 1108/1112 BKN025
     FM111600 19008KT P6SM SCT015 OVC025
     FM112000 19008KT 5SM -SHSN OVC012=

USA.gov is the U.S. government's official web portal to all federal, state and local government web resources and services.